Time;durP1;ratioP1;P1;durP2;ratioP2;P2;SDS_P1;SDS_P2;PMS_P1;PMS_P2;Temp;Humidity;BMP_temperature;BMP_pressure;BME280_temperature;BME280_humidity;BME280_pressure;Samples;Min_cycle;Max_cycle;Signal;HPM_P1;HPM_P2
2023/08/27 00:00:46;;;;;;;2.33;2.10;;;;;;;;;;5030710;28;20911;-56
2023/08/27 00:03:12;;;;;;;3.10;2.37;;;;;;;;;;5031032;28;20197;-56
2023/08/27 00:05:42;;;;;;;2.70;2.30;;;;;;;;;;5027518;28;20266;-51
2023/08/27 00:08:08;;;;;;;2.87;2.57;;;;;;;;;;5031035;28;20208;-49
2023/08/27 00:10:35;;;;;;;3.20;2.50;;;;;;;;;;5031225;28;20205;-49
2023/08/27 00:13:01;;;;;;;2.97;2.63;;;;;;;;;;5034233;28;20702;-48
2023/08/27 00:15:27;;;;;;;3.43;2.67;;;;;;;;;;5034501;28;20232;-49
2023/08/27 00:17:53;;;;;;;4.00;2.80;;;;;;;;;;5034775;28;20208;-49
2023/08/27 00:20:19;;;;;;;2.70;2.50;;;;;;;;;;5034676;28;20209;-50
2023/08/27 00:22:45;;;;;;;2.27;2.07;;;;;;;;;;5034655;28;20200;-50
2023/08/27 00:25:11;;;;;;;3.03;2.60;;;;;;;;;;5034719;28;20197;-49
2023/08/27 00:27:39;;;;;;;3.00;2.70;;;;;;;;;;5034799;28;20287;-50
2023/08/27 00:30:05;;;;;;;3.07;2.60;;;;;;;;;;5034467;28;20202;-50
2023/08/27 00:32:33;;;;;;;2.97;2.57;;;;;;;;;;5034116;28;20291;-49
2023/08/27 00:34:59;;;;;;;3.20;2.70;;;;;;;;;;5034227;28;20197;-49
2023/08/27 00:37:25;;;;;;;3.40;2.77;;;;;;;;;;5034293;28;20233;-49
2023/08/27 00:39:51;;;;;;;3.80;2.93;;;;;;;;;;5034344;28;20240;-49
2023/08/27 00:42:17;;;;;;;2.80;2.60;;;;;;;;;;5034189;28;20225;-49
2023/08/27 00:44:44;;;;;;;3.63;2.33;;;;;;;;;;5034174;28;20236;-49
2023/08/27 00:47:11;;;;;;;2.47;2.23;;;;;;;;;;5034305;28;20595;-49
2023/08/27 00:49:38;;;;;;;2.50;2.30;;;;;;;;;;5034112;28;20296;-49
2023/08/27 00:52:05;;;;;;;2.73;2.10;;;;;;;;;;5034028;28;20201;-49
2023/08/27 00:54:32;;;;;;;2.40;2.20;;;;;;;;;;5034014;28;20201;-49
2023/08/27 00:56:58;;;;;;;2.33;2.10;;;;;;;;;;5034023;28;20267;-49
2023/08/27 00:59:24;;;;;;;2.40;2.20;;;;;;;;;;5034060;28;20204;-50
2023/08/27 01:01:52;;;;;;;3.00;2.33;;;;;;;;;;5034050;28;20204;-50
2023/08/27 01:04:18;;;;;;;2.57;2.37;;;;;;;;;;5033866;28;20292;-50
2023/08/27 01:06:44;;;;;;;2.83;2.07;;;;;;;;;;5033654;28;20196;-50
2023/08/27 01:09:12;;;;;;;2.67;2.30;;;;;;;;;;5033780;28;20201;-50
2023/08/27 01:11:46;;;;;;;3.00;2.30;;;;;;;;;;5033754;28;20201;-49
2023/08/27 01:14:13;;;;;;;3.30;2.10;;;;;;;;;;5033810;28;20231;-49
2023/08/27 01:16:39;;;;;;;3.57;2.03;;;;;;;;;;5033514;28;20228;-49
2023/08/27 01:19:07;;;;;;;2.37;1.73;;;;;;;;;;5033527;28;20193;-49
2023/08/27 01:21:35;;;;;;;2.07;1.87;;;;;;;;;;5032796;28;20284;-49
2023/08/27 01:24:01;;;;;;;3.20;1.90;;;;;;;;;;5032997;28;20218;-49
2023/08/27 01:26:30;;;;;;;1.80;1.70;;;;;;;;;;5033336;28;20743;-48
2023/08/27 01:29:12;;;;;;;2.13;1.93;;;;;;;;;;5033614;28;20193;-49
2023/08/27 01:31:40;;;;;;;2.87;2.00;;;;;;;;;;5033584;28;20263;-49
2023/08/27 01:34:08;;;;;;;2.60;2.20;;;;;;;;;;5033254;28;20226;-49
2023/08/27 01:36:36;;;;;;;3.10;2.30;;;;;;;;;;5033303;28;20240;-49
2023/08/27 01:39:04;;;;;;;3.73;2.00;;;;;;;;;;5033227;28;20201;-49
2023/08/27 01:41:30;;;;;;;2.63;2.20;;;;;;;;;;5033226;28;20228;-49
2023/08/27 01:43:56;;;;;;;2.17;1.83;;;;;;;;;;5033080;28;20248;-49
2023/08/27 01:46:22;;;;;;;2.90;2.10;;;;;;;;;;5032933;28;20746;-49
2023/08/27 01:48:48;;;;;;;2.40;2.20;;;;;;;;;;5033075;28;20193;-49
2023/08/27 01:51:14;;;;;;;2.00;1.90;;;;;;;;;;5033050;28;20196;-49
2023/08/27 01:53:41;;;;;;;3.17;2.20;;;;;;;;;;5033056;28;20564;-49
2023/08/27 01:56:07;;;;;;;3.30;2.17;;;;;;;;;;5032886;28;20294;-48
2023/08/27 01:58:33;;;;;;;3.47;2.10;;;;;;;;;;5032879;28;20613;-49
2023/08/27 02:00:59;;;;;;;4.97;2.30;;;;;;;;;;5032889;28;20201;-49
2023/08/27 02:03:25;;;;;;;3.53;2.33;;;;;;;;;;5032735;28;20231;-49
2023/08/27 02:05:51;;;;;;;2.73;2.00;;;;;;;;;;5032831;28;20220;-49
2023/08/27 02:08:17;;;;;;;2.43;1.87;;;;;;;;;;5032560;28;20757;-49
2023/08/27 02:10:47;;;;;;;2.33;2.10;;;;;;;;;;5032719;28;20197;-49
2023/08/27 02:13:13;;;;;;;3.33;2.10;;;;;;;;;;5031363;28;20201;-49
2023/08/27 02:15:39;;;;;;;3.67;1.90;;;;;;;;;;5032508;28;20219;-48
2023/08/27 02:18:06;;;;;;;2.50;2.00;;;;;;;;;;5032533;28;20267;-49
2023/08/27 02:20:32;;;;;;;2.10;1.90;;;;;;;;;;5032241;28;20620;-48
2023/08/27 02:22:58;;;;;;;3.97;2.10;;;;;;;;;;5032116;28;20679;-49
2023/08/27 02:25:24;;;;;;;2.30;1.80;;;;;;;;;;5032414;28;20587;-49
2023/08/27 02:27:52;;;;;;;2.20;2.00;;;;;;;;;;5032298;28;20200;-49
2023/08/27 02:30:18;;;;;;;3.00;1.80;;;;;;;;;;5032299;28;20205;-49
2023/08/27 02:32:44;;;;;;;2.13;1.93;;;;;;;;;;5031825;28;20551;-49
2023/08/27 02:35:10;;;;;;;2.53;2.07;;;;;;;;;;5032149;28;20192;-49
2023/08/27 02:37:36;;;;;;;2.00;1.90;;;;;;;;;;5032063;28;20582;-49
2023/08/27 02:40:02;;;;;;;2.10;2.00;;;;;;;;;;5032092;28;20255;-49
2023/08/27 02:42:28;;;;;;;2.30;2.10;;;;;;;;;;5032020;28;20246;-48
2023/08/27 02:44:56;;;;;;;2.33;2.00;;;;;;;;;;5032163;28;20237;-49
2023/08/27 02:47:22;;;;;;;2.20;2.10;;;;;;;;;;5031977;28;20284;-49
2023/08/27 02:49:49;;;;;;;2.70;2.30;;;;;;;;;;5032026;28;20196;-49
2023/08/27 02:52:15;;;;;;;2.50;2.30;;;;;;;;;;5031524;28;20656;-49
2023/08/27 02:54:41;;;;;;;3.30;2.20;;;;;;;;;;5031977;28;20294;-48
2023/08/27 02:57:07;;;;;;;3.33;2.20;;;;;;;;;;5031551;28;20721;-49
2023/08/27 02:59:33;;;;;;;4.03;2.30;;;;;;;;;;5031891;28;20205;-48
2023/08/27 03:02:01;;;;;;;2.30;2.20;;;;;;;;;;5031667;28;20189;-48
2023/08/27 03:04:27;;;;;;;2.50;2.30;;;;;;;;;;5031683;28;20667;-49
2023/08/27 03:06:53;;;;;;;3.10;2.40;;;;;;;;;;5031604;28;20291;-49
2023/08/27 03:09:19;;;;;;;2.47;2.27;;;;;;;;;;5031289;28;20189;-49
2023/08/27 03:11:45;;;;;;;2.80;2.60;;;;;;;;;;5031745;28;20262;-48
2023/08/27 03:14:11;;;;;;;3.40;2.50;;;;;;;;;;5031763;28;20212;-48
2023/08/27 03:16:37;;;;;;;2.50;2.30;;;;;;;;;;5031548;28;20228;-48
2023/08/27 03:19:04;;;;;;;2.43;2.23;;;;;;;;;;5031702;28;20192;-48
2023/08/27 03:21:30;;;;;;;2.60;2.40;;;;;;;;;;5031389;28;20851;-49
2023/08/27 03:23:56;;;;;;;3.43;2.73;;;;;;;;;;5031373;28;20200;-49
2023/08/27 03:26:22;;;;;;;2.60;2.40;;;;;;;;;;5031174;28;20192;-48
2023/08/27 03:28:48;;;;;;;4.73;2.33;;;;;;;;;;5031383;28;20192;-49
2023/08/27 03:31:15;;;;;;;2.63;2.40;;;;;;;;;;5031282;28;20651;-49
2023/08/27 03:33:41;;;;;;;2.80;2.60;;;;;;;;;;5031424;28;20551;-49
2023/08/27 03:36:08;;;;;;;2.50;2.13;;;;;;;;;;5031394;28;20311;-49
2023/08/27 03:38:34;;;;;;;2.50;2.30;;;;;;;;;;5031127;28;20240;-49
2023/08/27 03:41:00;;;;;;;2.90;2.40;;;;;;;;;;5031247;28;20670;-49
2023/08/27 03:43:26;;;;;;;3.10;2.50;;;;;;;;;;5031187;28;20220;-49
2023/08/27 03:45:52;;;;;;;3.30;3.00;;;;;;;;;;5032941;28;20240;-49
2023/08/27 03:48:18;;;;;;;2.73;2.53;;;;;;;;;;5035295;28;20201;-49
2023/08/27 03:50:46;;;;;;;3.43;2.50;;;;;;;;;;5035265;28;20215;-49
2023/08/27 03:53:13;;;;;;;3.40;3.10;;;;;;;;;;5035027;28;20200;-48
2023/08/27 03:55:39;;;;;;;2.97;2.67;;;;;;;;;;5035173;28;20296;-49
2023/08/27 03:58:06;;;;;;;3.00;2.80;;;;;;;;;;5035160;28;20296;-49
2023/08/27 04:00:33;;;;;;;3.80;3.50;;;;;;;;;;5035054;28;20208;-48
2023/08/27 04:02:59;;;;;;;3.80;3.50;;;;;;;;;;5035150;28;20201;-49
2023/08/27 04:05:25;;;;;;;3.83;3.47;;;;;;;;;;5035128;28;20208;-49
2023/08/27 04:07:51;;;;;;;3.67;3.40;;;;;;;;;;5035084;28;20279;-49
2023/08/27 04:10:19;;;;;;;3.67;3.20;;;;;;;;;;5034872;28;20326;-49
2023/08/27 04:12:45;;;;;;;3.60;3.30;;;;;;;;;;5035023;28;20197;-49
2023/08/27 04:15:11;;;;;;;4.63;3.37;;;;;;;;;;5034942;28;20921;-49
2023/08/27 04:17:37;;;;;;;3.73;3.10;;;;;;;;;;5034757;28;20238;-48
2023/08/27 04:20:03;;;;;;;3.60;3.30;;;;;;;;;;5034867;28;20291;-49
2023/08/27 04:22:29;;;;;;;3.30;3.00;;;;;;;;;;5034638;28;20247;-49
2023/08/27 04:24:55;;;;;;;3.90;3.60;;;;;;;;;;5034784;28;20579;-49
2023/08/27 04:27:22;;;;;;;3.97;3.10;;;;;;;;;;5034621;28;20185;-49
2023/08/27 04:29:48;;;;;;;3.23;3.00;;;;;;;;;;5034687;28;20193;-48
2023/08/27 04:32:14;;;;;;;3.40;3.10;;;;;;;;;;5034433;28;20755;-48
2023/08/27 04:34:40;;;;;;;4.40;4.00;;;;;;;;;;5034766;28;20292;-48
2023/08/27 04:37:06;;;;;;;3.73;3.43;;;;;;;;;;5034228;28;20231;-49
2023/08/27 04:39:32;;;;;;;3.90;3.50;;;;;;;;;;5034060;28;20213;-48
2023/08/27 04:41:59;;;;;;;3.90;3.60;;;;;;;;;;5034104;28;20211;-49
2023/08/27 04:44:26;;;;;;;3.60;3.30;;;;;;;;;;5034127;28;20310;-49
2023/08/27 04:46:52;;;;;;;3.30;3.10;;;;;;;;;;5034543;28;20205;-50
2023/08/27 04:49:18;;;;;;;4.23;3.83;;;;;;;;;;5034218;28;20200;-49
2023/08/27 04:51:44;;;;;;;4.07;3.70;;;;;;;;;;5034310;28;20284;-50
2023/08/27 04:54:11;;;;;;;3.70;3.40;;;;;;;;;;5033973;28;20235;-48
2023/08/27 04:56:37;;;;;;;3.80;3.50;;;;;;;;;;5033720;28;20798;-47
2023/08/27 04:59:03;;;;;;;3.37;2.87;;;;;;;;;;5033634;28;20292;-50
2023/08/27 05:01:30;;;;;;;3.73;2.97;;;;;;;;;;5033974;28;20287;-50
2023/08/27 05:03:56;;;;;;;3.20;2.97;;;;;;;;;;5034176;28;20287;-50
2023/08/27 05:06:22;;;;;;;3.50;3.20;;;;;;;;;;5033961;28;20204;-46
2023/08/27 05:08:48;;;;;;;3.40;3.10;;;;;;;;;;5033997;28;20193;-47
2023/08/27 05:11:15;;;;;;;4.03;3.40;;;;;;;;;;5033770;28;20667;-47
2023/08/27 05:13:41;;;;;;;3.90;3.60;;;;;;;;;;5033931;28;20632;-49
2023/08/27 05:16:07;;;;;;;3.87;3.57;;;;;;;;;;5033822;28;20256;-49
2023/08/27 05:18:35;;;;;;;3.50;3.20;;;;;;;;;;5033686;28;20292;-50
2023/08/27 05:21:01;;;;;;;3.70;3.40;;;;;;;;;;5033483;28;20288;-49
2023/08/27 05:23:27;;;;;;;3.47;3.17;;;;;;;;;;5033586;28;20250;-49
2023/08/27 05:25:53;;;;;;;3.27;2.97;;;;;;;;;;5033805;28;20404;-49
2023/08/27 05:28:19;;;;;;;3.30;3.00;;;;;;;;;;5033056;28;20683;-49
2023/08/27 05:30:46;;;;;;;3.50;3.00;;;;;;;;;;5033505;28;20197;-49
2023/08/27 05:33:12;;;;;;;3.30;3.00;;;;;;;;;;5033533;28;20223;-49
2023/08/27 05:35:39;;;;;;;3.60;3.30;;;;;;;;;;5033425;28;20236;-50
2023/08/27 05:38:06;;;;;;;3.20;2.90;;;;;;;;;;5033311;28;20689;-49
2023/08/27 05:40:32;;;;;;;3.77;3.47;;;;;;;;;;5033299;28;20195;-49
2023/08/27 05:42:58;;;;;;;5.53;3.07;;;;;;;;;;5033296;28;20221;-48
2023/08/27 05:45:24;;;;;;;3.30;3.00;;;;;;;;;;5033133;28;20260;-48
2023/08/27 05:47:50;;;;;;;3.27;2.97;;;;;;;;;;5033064;28;20665;-48
2023/08/27 05:50:16;;;;;;;3.90;3.07;;;;;;;;;;5033011;28;20284;-49
2023/08/27 05:52:43;;;;;;;3.10;2.90;;;;;;;;;;5033184;28;20293;-48
2023/08/27 05:55:09;;;;;;;3.53;3.23;;;;;;;;;;5033227;28;20227;-49
2023/08/27 05:57:35;;;;;;;4.40;3.77;;;;;;;;;;5032848;28;20672;-49
2023/08/27 06:00:02;;;;;;;3.77;3.30;;;;;;;;;;5033031;28;20296;-49
2023/08/27 06:02:28;;;;;;;4.13;3.60;;;;;;;;;;5032889;28;20196;-49
2023/08/27 06:04:54;;;;;;;3.40;3.10;;;;;;;;;;5033090;28;20221;-49
2023/08/27 06:07:21;;;;;;;3.43;3.13;;;;;;;;;;5032667;28;20200;-49
2023/08/27 06:09:48;;;;;;;3.37;3.03;;;;;;;;;;5032136;28;20209;-49
2023/08/27 06:12:14;;;;;;;3.70;3.40;;;;;;;;;;5032530;28;20208;-49
2023/08/27 06:14:40;;;;;;;4.57;3.50;;;;;;;;;;5032732;28;20675;-49
2023/08/27 06:17:06;;;;;;;3.67;2.80;;;;;;;;;;5032541;28;20217;-50
2023/08/27 06:19:32;;;;;;;3.40;3.13;;;;;;;;;;5032486;28;20207;-49
2023/08/27 06:21:58;;;;;;;3.97;3.03;;;;;;;;;;5032450;28;20207;-49
2023/08/27 06:24:24;;;;;;;3.60;3.30;;;;;;;;;;5032626;28;20207;-49
2023/08/27 06:26:52;;;;;;;2.93;2.73;;;;;;;;;;5032398;28;20652;-49
2023/08/27 06:29:18;;;;;;;2.77;2.57;;;;;;;;;;5032256;28;20197;-49
2023/08/27 06:31:44;;;;;;;2.73;2.53;;;;;;;;;;5031941;28;20284;-49
2023/08/27 06:34:10;;;;;;;3.87;2.70;;;;;;;;;;5032454;28;20189;-49
2023/08/27 06:36:36;;;;;;;2.73;2.53;;;;;;;;;;5032351;28;20281;-50
2023/08/27 06:39:02;;;;;;;3.83;3.03;;;;;;;;;;5032287;28;20227;-50
2023/08/27 06:41:28;;;;;;;3.33;2.80;;;;;;;;;;5032074;28;20292;-49
2023/08/27 06:43:56;;;;;;;3.13;2.80;;;;;;;;;;5032093;28;20307;-49
2023/08/27 06:46:22;;;;;;;4.27;2.90;;;;;;;;;;5031993;28;20216;-49
2023/08/27 06:48:48;;;;;;;4.80;2.57;;;;;;;;;;5032169;28;20201;-48
2023/08/27 06:51:14;;;;;;;3.07;2.77;;;;;;;;;;5031886;28;20603;-50
2023/08/27 06:53:40;;;;;;;3.60;2.70;;;;;;;;;;5032256;28;20232;-52
2023/08/27 06:56:06;;;;;;;3.03;2.77;;;;;;;;;;5032031;28;20224;-54
2023/08/27 06:58:32;;;;;;;3.60;2.57;;;;;;;;;;5031889;28;20468;-53
2023/08/27 07:01:04;;;;;;;2.67;2.40;;;;;;;;;;5032027;28;20660;-50
2023/08/27 07:03:30;;;;;;;3.30;2.80;;;;;;;;;;5031860;28;20209;-52
2023/08/27 07:05:56;;;;;;;3.37;2.70;;;;;;;;;;5025644;28;20216;-53
2023/08/27 07:08:22;;;;;;;3.90;2.80;;;;;;;;;;5031328;28;20276;-52
2023/08/27 07:10:48;;;;;;;4.17;2.33;;;;;;;;;;5031513;28;20271;-52
2023/08/27 07:13:14;;;;;;;2.60;2.20;;;;;;;;;;5031489;28;20235;-53
2023/08/27 07:15:40;;;;;;;2.73;2.00;;;;;;;;;;5031535;28;20203;-53
2023/08/27 07:18:08;;;;;;;3.13;2.23;;;;;;;;;;5031633;28;20200;-53
2023/08/27 07:20:34;;;;;;;3.10;2.30;;;;;;;;;;5031384;28;20214;-51
2023/08/27 07:23:00;;;;;;;2.87;2.20;;;;;;;;;;5031257;28;20282;-52
2023/08/27 07:25:26;;;;;;;2.80;2.60;;;;;;;;;;5031551;28;20209;-51
2023/08/27 07:27:52;;;;;;;2.73;2.30;;;;;;;;;;5031550;28;20193;-50
2023/08/27 07:30:18;;;;;;;3.53;2.20;;;;;;;;;;5031348;28;20202;-51
2023/08/27 07:32:44;;;;;;;3.07;2.50;;;;;;;;;;5031200;28;20700;-53
2023/08/27 07:35:12;;;;;;;3.47;2.80;;;;;;;;;;5031554;28;20198;-52
2023/08/27 07:37:38;;;;;;;2.93;2.50;;;;;;;;;;5027504;28;20756;-50
2023/08/27 07:40:04;;;;;;;2.27;2.07;;;;;;;;;;5031308;28;20843;-51
2023/08/27 07:42:30;;;;;;;5.93;2.40;;;;;;;;;;5029206;28;20229;-50
2023/08/27 07:44:56;;;;;;;2.57;2.30;;;;;;;;;;5028909;28;20236;-50
2023/08/27 07:47:22;;;;;;;2.47;2.20;;;;;;;;;;5030619;28;20673;-52
2023/08/27 07:49:48;;;;;;;3.30;2.33;;;;;;;;;;5030789;28;20207;-52
2023/08/27 07:52:16;;;;;;;2.30;2.10;;;;;;;;;;5030576;28;20616;-51
2023/08/27 07:54:45;;;;;;;2.17;2.00;;;;;;;;;;5030689;28;20242;-52
2023/08/27 07:57:13;;;;;;;3.73;1.90;;;;;;;;;;5030614;28;20321;-52
2023/08/27 07:59:39;;;;;;;3.97;2.63;;;;;;;;;;5030710;28;20196;-50
2023/08/27 08:02:06;;;;;;;2.67;1.70;;;;;;;;;;5030534;28;20709;-50
2023/08/27 08:04:32;;;;;;;2.97;2.17;;;;;;;;;;5030509;28;20221;-52
2023/08/27 08:06:58;;;;;;;3.20;2.00;;;;;;;;;;5030413;28;20701;-51
2023/08/27 08:09:25;;;;;;;4.77;2.20;;;;;;;;;;5030176;28;20232;-51
2023/08/27 08:11:52;;;;;;;2.10;1.90;;;;;;;;;;5030511;28;20204;-51
2023/08/27 08:14:18;;;;;;;2.03;1.83;;;;;;;;;;5029852;28;20315;-51
2023/08/27 08:16:44;;;;;;;5.37;2.17;;;;;;;;;;5030349;28;20961;-51
2023/08/27 08:19:10;;;;;;;3.07;1.93;;;;;;;;;;5030503;28;20276;-50
2023/08/27 08:21:36;;;;;;;4.30;2.00;;;;;;;;;;5029811;28;20613;-51
2023/08/27 08:24:02;;;;;;;4.23;2.33;;;;;;;;;;5030531;28;20224;-51
2023/08/27 08:26:29;;;;;;;5.30;2.50;;;;;;;;;;5030254;28;20630;-50
2023/08/27 08:28:55;;;;;;;3.03;2.00;;;;;;;;;;5030562;28;20199;-51
2023/08/27 08:31:21;;;;;;;3.17;2.10;;;;;;;;;;5030885;28;20290;-50
2023/08/27 08:33:47;;;;;;;3.23;2.10;;;;;;;;;;5033747;28;20262;-50
2023/08/27 08:36:13;;;;;;;3.03;2.03;;;;;;;;;;5033706;28;20698;-51
2023/08/27 08:38:39;;;;;;;3.73;2.17;;;;;;;;;;5034118;28;20201;-51
2023/08/27 08:41:07;;;;;;;3.40;2.13;;;;;;;;;;5033805;28;20255;-51
2023/08/27 08:43:37;;;;;;;3.57;2.07;;;;;;;;;;5033662;28;20226;-49
2023/08/27 08:46:03;;;;;;;1.97;1.83;;;;;;;;;;5033613;28;20377;-51
2023/08/27 08:48:30;;;;;;;3.00;2.30;;;;;;;;;;5033515;28;20267;-50
2023/08/27 08:50:57;;;;;;;6.30;2.87;;;;;;;;;;5033631;28;20200;-50
2023/08/27 08:53:25;;;;;;;3.37;1.93;;;;;;;;;;5033627;28;20200;-50
2023/08/27 08:55:56;;;;;;;3.70;2.10;;;;;;;;;;5033475;28;20200;-50
2023/08/27 08:58:24;;;;;;;2.20;2.00;;;;;;;;;;5032829;28;21011;-52
2023/08/27 09:00:51;;;;;;;3.73;3.10;;;;;;;;;;5033835;28;20287;-50
2023/08/27 09:03:19;;;;;;;5.40;2.30;;;;;;;;;;5033352;28;20670;-50
2023/08/27 09:05:46;;;;;;;2.17;1.97;;;;;;;;;;5033425;28;20214;-50
2023/08/27 09:08:13;;;;;;;3.43;2.00;;;;;;;;;;5033528;28;20208;-52
2023/08/27 09:10:39;;;;;;;2.87;2.00;;;;;;;;;;5033526;28;20200;-51
2023/08/27 09:13:05;;;;;;;2.67;2.17;;;;;;;;;;5033331;28;20292;-51
2023/08/27 09:15:32;;;;;;;3.63;1.87;;;;;;;;;;5033205;28;20287;-50
2023/08/27 09:17:59;;;;;;;2.90;1.97;;;;;;;;;;5033070;28;20279;-50
2023/08/27 09:20:25;;;;;;;5.07;1.70;;;;;;;;;;5032992;28;20204;-51
2023/08/27 09:22:51;;;;;;;4.50;2.00;;;;;;;;;;5032966;28;20201;-51
2023/08/27 09:25:17;;;;;;;2.90;1.90;;;;;;;;;;5033030;28;20747;-50
2023/08/27 09:27:43;;;;;;;2.83;1.87;;;;;;;;;;5032895;28;20189;-50
2023/08/27 09:30:10;;;;;;;3.40;2.37;;;;;;;;;;5033046;28;20283;-50
2023/08/27 09:32:36;;;;;;;3.10;1.70;;;;;;;;;;5032960;28;20239;-50
2023/08/27 09:35:04;;;;;;;2.30;2.10;;;;;;;;;;5032794;28;20197;-50
2023/08/27 09:37:38;;;;;;;3.40;1.70;;;;;;;;;;5032773;28;20316;-50
2023/08/27 09:40:06;;;;;;;3.07;2.07;;;;;;;;;;5032809;28;20597;-50
2023/08/27 09:42:32;;;;;;;4.27;2.57;;;;;;;;;;5032131;28;20287;-50
2023/08/27 09:44:59;;;;;;;2.87;1.80;;;;;;;;;;5014419;28;20255;-51
2023/08/27 09:47:30;;;;;;;2.90;2.13;;;;;;;;;;5032754;28;20200;-51
2023/08/27 09:49:56;;;;;;;3.43;2.30;;;;;;;;;;5032747;28;20599;-51
2023/08/27 09:52:24;;;;;;;1.90;1.70;;;;;;;;;;5032470;28;20200;-51
2023/08/27 09:54:52;;;;;;;2.13;1.93;;;;;;;;;;5032445;28;20671;-50
2023/08/27 09:57:18;;;;;;;2.57;2.00;;;;;;;;;;5032326;28;20236;-50
2023/08/27 09:59:46;;;;;;;4.27;2.60;;;;;;;;;;5032133;28;20203;-50
2023/08/27 10:02:12;;;;;;;3.37;2.67;;;;;;;;;;5032479;28;20203;-47
2023/08/27 10:04:47;;;;;;;8.87;3.67;;;;;;;;;;5032208;28;20272;-46
2023/08/27 10:07:13;;;;;;;5.00;4.00;;;;;;;;;;5032457;28;20192;-47
2023/08/27 10:09:41;;;;;;;5.97;3.10;;;;;;;;;;5032477;28;20571;-48
2023/08/27 10:12:09;;;;;;;4.27;3.00;;;;;;;;;;5032649;28;20201;-48
2023/08/27 10:14:40;;;;;;;4.40;2.70;;;;;;;;;;5032322;28;20208;-48
2023/08/27 10:17:06;;;;;;;4.33;2.30;;;;;;;;;;5032250;28;20308;-48
2023/08/27 10:19:33;;;;;;;5.03;2.70;;;;;;;;;;5032207;28;20201;-47
2023/08/27 10:21:59;;;;;;;4.17;2.40;;;;;;;;;;5026963;28;20202;-48
2023/08/27 10:24:25;;;;;;;3.63;2.30;;;;;;;;;;5031723;28;20201;-48
2023/08/27 10:26:53;;;;;;;2.50;2.30;;;;;;;;;;5031637;28;20608;-47
2023/08/27 10:29:22;;;;;;;2.83;2.23;;;;;;;;;;5031934;28;20199;-48
2023/08/27 10:31:48;;;;;;;2.90;2.60;;;;;;;;;;5032077;28;20211;-49
2023/08/27 10:34:14;;;;;;;4.60;2.40;;;;;;;;;;5031908;28;20659;-47
2023/08/27 10:36:41;;;;;;;2.83;2.30;;;;;;;;;;5031478;28;20841;-48
2023/08/27 10:39:08;;;;;;;3.30;2.80;;;;;;;;;;5031698;28;20251;-48
2023/08/27 10:41:34;;;;;;;3.00;2.80;;;;;;;;;;5031524;28;20196;-49
2023/08/27 10:44:02;;;;;;;3.03;2.83;;;;;;;;;;5031570;28;20240;-49
2023/08/27 10:46:28;;;;;;;4.07;2.67;;;;;;;;;;5031309;28;20271;-49
2023/08/27 10:48:55;;;;;;;3.23;2.77;;;;;;;;;;5031778;28;20669;-47
2023/08/27 10:51:21;;;;;;;4.03;2.90;;;;;;;;;;5031203;28;20201;-49
2023/08/27 10:53:55;;;;;;;4.53;2.60;;;;;;;;;;5031470;28;20206;-50
2023/08/27 10:56:28;;;;;;;3.77;2.80;;;;;;;;;;5031412;28;20308;-51
2023/08/27 10:58:57;;;;;;;4.23;3.30;;;;;;;;;;5031428;28;20202;-49
2023/08/27 11:01:24;;;;;;;3.50;3.20;;;;;;;;;;5031362;28;20604;-51
2023/08/27 11:03:51;;;;;;;3.10;2.90;;;;;;;;;;5031637;28;20199;-50
2023/08/27 11:06:18;;;;;;;3.60;3.30;;;;;;;;;;5031053;28;20289;-50
2023/08/27 11:08:44;;;;;;;3.80;3.50;;;;;;;;;;5031083;28;20205;-52
2023/08/27 11:11:14;;;;;;;4.37;3.87;;;;;;;;;;5027930;28;20195;-50
2023/08/27 11:13:47;;;;;;;5.17;4.77;;;;;;;;;;5029112;28;20199;-50
2023/08/27 11:16:14;;;;;;;6.83;6.27;;;;;;;;;;5029881;28;20200;-49
2023/08/27 11:18:51;;;;;;;5.23;4.83;;;;;;;;;;5031067;28;20229;-51
2023/08/27 11:21:21;;;;;;;5.30;4.80;;;;;;;;;;5031069;28;20889;-49
2023/08/27 11:24:02;;;;;;;5.10;4.70;;;;;;;;;;5031444;28;20307;-49
2023/08/27 11:26:29;;;;;;;5.67;5.03;;;;;;;;;;5030317;28;20661;-49
2023/08/27 11:28:57;;;;;;;4.60;4.17;;;;;;;;;;5030872;28;20655;-50
2023/08/27 11:31:24;;;;;;;4.90;4.50;;;;;;;;;;5031253;28;20247;-49
2023/08/27 11:33:52;;;;;;;5.43;4.87;;;;;;;;;;5031299;28;20208;-51
2023/08/27 11:36:18;;;;;;;5.37;4.97;;;;;;;;;;5031076;28;20197;-50
2023/08/27 11:38:44;;;;;;;5.43;4.93;;;;;;;;;;5031252;28;20208;-49
2023/08/27 11:41:10;;;;;;;4.90;4.50;;;;;;;;;;5031273;28;20204;-49
2023/08/27 11:43:36;;;;;;;6.83;6.20;;;;;;;;;;5030926;28;20218;-49
2023/08/27 11:46:03;;;;;;;6.27;5.77;;;;;;;;;;5030993;28;20234;-47
2023/08/27 11:48:29;;;;;;;6.53;6.03;;;;;;;;;;5030827;28;20636;-50
2023/08/27 11:50:57;;;;;;;6.70;6.10;;;;;;;;;;5031342;28;20552;-49
2023/08/27 11:53:23;;;;;;;6.30;5.80;;;;;;;;;;5031059;28;20210;-49
2023/08/27 11:55:49;;;;;;;7.10;6.53;;;;;;;;;;5030628;28;20287;-50
2023/08/27 11:58:15;;;;;;;6.83;6.23;;;;;;;;;;5030900;28;20731;-50
2023/08/27 12:00:42;;;;;;;6.97;6.43;;;;;;;;;;5031005;28;20694;-49
2023/08/27 12:03:09;;;;;;;6.83;6.33;;;;;;;;;;5030962;28;20253;-51
2023/08/27 12:05:35;;;;;;;6.83;6.33;;;;;;;;;;5030787;28;20221;-49
2023/08/27 12:08:06;;;;;;;7.23;6.67;;;;;;;;;;5034136;28;20766;-50
2023/08/27 12:10:32;;;;;;;6.57;6.03;;;;;;;;;;5034718;28;20277;-50
2023/08/27 12:13:00;;;;;;;6.00;5.50;;;;;;;;;;5034762;28;20282;-49
2023/08/27 12:15:29;;;;;;;6.93;6.33;;;;;;;;;;5034626;28;20210;-50
2023/08/27 12:17:55;;;;;;;6.30;5.80;;;;;;;;;;5034624;28;20692;-50
2023/08/27 12:20:33;;;;;;;6.70;6.10;;;;;;;;;;5034514;28;20201;-49
2023/08/27 12:23:10;;;;;;;5.90;5.30;;;;;;;;;;5034548;28;20256;-49
2023/08/27 12:25:46;;;;;;;5.80;5.30;;;;;;;;;;5034461;28;20226;-49
2023/08/27 12:28:12;;;;;;;5.80;5.40;;;;;;;;;;5034692;28;20203;-50
2023/08/27 12:30:43;;;;;;;6.30;5.70;;;;;;;;;;5034543;28;20202;-49
2023/08/27 12:33:09;;;;;;;6.10;5.60;;;;;;;;;;5034171;28;20201;-49
2023/08/27 12:35:36;;;;;;;5.67;5.27;;;;;;;;;;5034291;28;20565;-49
2023/08/27 12:38:02;;;;;;;5.50;5.00;;;;;;;;;;5034009;28;20233;-49
2023/08/27 12:40:29;;;;;;;5.37;4.97;;;;;;;;;;5034142;28;20202;-48
2023/08/27 12:42:55;;;;;;;5.30;4.90;;;;;;;;;;5034274;28;20244;-48
2023/08/27 12:45:21;;;;;;;5.40;4.90;;;;;;;;;;5033582;28;20786;-48
2023/08/27 12:47:47;;;;;;;7.40;4.97;;;;;;;;;;5034273;28;20200;-48
2023/08/27 12:50:13;;;;;;;5.70;5.30;;;;;;;;;;5034093;28;20192;-48
2023/08/27 12:52:39;;;;;;;5.83;5.30;;;;;;;;;;5033824;28;20273;-48
2023/08/27 12:55:06;;;;;;;6.67;5.70;;;;;;;;;;5034033;28;20203;-49
2023/08/27 12:57:33;;;;;;;6.10;5.50;;;;;;;;;;5030376;28;20339;-48
2023/08/27 13:00:00;;;;;;;5.93;5.43;;;;;;;;;;5051888;28;20332;-50
2023/08/27 13:02:26;;;;;;;6.30;5.23;;;;;;;;;;5053629;28;20574;-50
2023/08/27 13:04:52;;;;;;;5.73;5.23;;;;;;;;;;5053620;28;20650;-50
2023/08/27 13:07:19;;;;;;;5.10;4.60;;;;;;;;;;5053369;28;20199;-49
2023/08/27 13:09:45;;;;;;;4.30;3.90;;;;;;;;;;5053242;28;20238;-48
2023/08/27 13:12:11;;;;;;;4.80;4.40;;;;;;;;;;5053631;28;20245;-49
2023/08/27 13:14:38;;;;;;;3.83;3.50;;;;;;;;;;5052943;28;20611;-50
2023/08/27 13:17:04;;;;;;;4.60;4.20;;;;;;;;;;5052497;28;20228;-51
2023/08/27 13:19:30;;;;;;;4.80;4.27;;;;;;;;;;5052163;28;20203;-51
2023/08/27 13:21:56;;;;;;;4.90;4.30;;;;;;;;;;5052506;28;20276;-48
2023/08/27 13:24:22;;;;;;;4.03;3.73;;;;;;;;;;5053079;28;20209;-50
2023/08/27 13:26:48;;;;;;;4.23;3.93;;;;;;;;;;5052895;28;20200;-50
2023/08/27 13:29:14;;;;;;;4.90;4.03;;;;;;;;;;5052307;28;20610;-51
2023/08/27 13:31:42;;;;;;;4.43;3.27;;;;;;;;;;5052298;28;20196;-51
2023/08/27 13:34:08;;;;;;;3.90;3.60;;;;;;;;;;5052714;28;20295;-51
2023/08/27 13:36:34;;;;;;;5.00;3.27;;;;;;;;;;5048944;28;20208;-51
2023/08/27 13:39:00;;;;;;;3.93;3.60;;;;;;;;;;5032805;28;20575;-51
2023/08/27 13:41:26;;;;;;;3.97;3.07;;;;;;;;;;5032573;28;20200;-48
2023/08/27 13:43:52;;;;;;;3.73;3.00;;;;;;;;;;5031959;28;20650;-52
2023/08/27 13:46:18;;;;;;;3.30;3.00;;;;;;;;;;5032709;28;20232;-51
2023/08/27 13:48:45;;;;;;;3.83;3.37;;;;;;;;;;5032336;28;20233;-51
2023/08/27 13:51:12;;;;;;;3.67;3.37;;;;;;;;;;5032537;28;20255;-49
2023/08/27 13:53:38;;;;;;;3.50;3.20;;;;;;;;;;5032120;28;20639;-50
2023/08/27 13:56:04;;;;;;;4.20;3.80;;;;;;;;;;5032520;28;20225;-49
2023/08/27 13:58:30;;;;;;;3.50;3.20;;;;;;;;;;5032212;28;20881;-51
2023/08/27 14:00:56;;;;;;;3.53;2.97;;;;;;;;;;5032739;28;20193;-49
2023/08/27 14:03:23;;;;;;;4.90;3.10;;;;;;;;;;5032115;28;20254;-49
2023/08/27 14:05:50;;;;;;;3.77;3.47;;;;;;;;;;5031970;28;20568;-50
2023/08/27 14:08:23;;;;;;;4.43;3.27;;;;;;;;;;5032412;28;20192;-50
2023/08/27 14:10:49;;;;;;;3.67;3.27;;;;;;;;;;5028479;28;20189;-50
2023/08/27 14:13:15;;;;;;;4.13;3.50;;;;;;;;;;5031527;28;20868;-50
2023/08/27 14:15:41;;;;;;;4.07;3.27;;;;;;;;;;5029007;28;20291;-51
2023/08/27 14:18:07;;;;;;;4.87;4.27;;;;;;;;;;5032301;28;20225;-50
2023/08/27 14:20:33;;;;;;;4.47;4.00;;;;;;;;;;5031841;28;20216;-49
2023/08/27 14:23:01;;;;;;;3.67;3.33;;;;;;;;;;5032097;28;20193;-49
2023/08/27 14:25:27;;;;;;;3.60;3.20;;;;;;;;;;5032045;28;20197;-49
2023/08/27 14:27:53;;;;;;;3.70;3.40;;;;;;;;;;5032253;28;20204;-49
2023/08/27 14:30:19;;;;;;;3.70;3.40;;;;;;;;;;5031392;28;20547;-50
2023/08/27 14:32:45;;;;;;;3.83;3.53;;;;;;;;;;5031944;28;20224;-49
2023/08/27 14:35:11;;;;;;;3.97;3.30;;;;;;;;;;5032005;28;20243;-49
2023/08/27 14:37:38;;;;;;;4.10;3.70;;;;;;;;;;5029724;28;20229;-48
2023/08/27 14:40:06;;;;;;;3.93;3.63;;;;;;;;;;5027890;28;20201;-50